Observations for Trim Market St
| Time | AQI | Temp °C | Hum % | Pres Pa | CO μg/m³ | H₂S μg/m³ | NO μg/m³ | NO₂ μg/m³ | O₃ μg/m³ | SO₂ μg/m³ | PM1 μg/m³ | PM2.5 μg/m³ | PM10 μg/m³ |
|---|---|---|---|---|---|---|---|---|---|---|---|---|---|
| Friday 10 July 2026 | |||||||||||||
| 20:31 | 1 | 26.3 | 52 | 56,253 | 0 | 4.63 | 0 | 13.61 | 14.49 | 0 | 1.43 | 2.86 | 3.14 |
| 20:30 | 1 | 26.3 | 52 | 56,185 | 0 | 3.67 | 0 | 12.44 | 20.72 | 0 | 2.14 | 4.4 | 6.06 |
| 20:28 | 1 | 26.3 | 52 | 56,128 | 0 | 0 | 0 | 9.96 | 16.37 | 0 | 1.43 | 3.9 | 4.59 |
| 20:24 | 1 | 26.4 | 52 | 56,084 | 0 | 3.11 | 0 | 12.84 | 18.75 | 0 | 2.14 | 4.93 | 6.06 |
| 20:20 | 1 | 26.5 | 52 | 56,003 | 0 | 2.6 | 0 | 12.76 | 19.61 | 0 | 0.71 | 3.41 | 3.84 |
| 20:15 | 1 | 26.7 | 51 | 55,864 | 0 | 3.07 | 0 | 13.05 | 16.11 | 0 | 1.43 | 3.43 | 3.83 |
| 20:12 | 1 | 26.8 | 51 | 55,757 | 0 | 1.89 | 0 | 10.77 | 19.79 | 0 | 2.14 | 4.99 | 6.04 |
| 20:11 | 1 | 26.8 | 51 | 55,735 | 0 | 2.58 | 0 | 11.28 | 17.64 | 0 | 2.85 | 5.51 | 7.53 |
| 20:10 | 1 | 26.9 | 50 | 55,711 | 0 | 3.17 | 0 | 11.88 | 18.82 | 0 | 2.14 | 5.52 | 7.53 |
| 20:09 | 1 | 26.9 | 50 | 55,696 | 0 | 2.82 | 0 | 11.8 | 18.02 | 0 | 1.43 | 4.5 | 5.29 |
| 20:08 | 1 | 27 | 50 | 55,709 | 0 | 3.72 | 0 | 11.68 | 20.32 | 0 | 2.14 | 5.53 | 6.78 |
| 20:07 | 1 | 27 | 50 | 55,734 | 0 | 0.55 | 0 | 9.1 | 21.14 | 0 | 1.43 | 3.48 | 3.8 |
| 20:06 | 1 | 27.1 | 50 | 55,770 | 0 | 0.78 | 0 | 9.58 | 19.55 | 0 | 2.14 | 4.52 | 5.29 |
| 20:05 | 1 | 27.1 | 50 | 55,823 | 0 | 1.4 | 0 | 9.99 | 19.78 | 0 | 2.14 | 4.52 | 5.29 |
| 20:03 | 1 | 27.2 | 50 | 56,019 | 0 | 0.24 | 0 | 8.98 | 17.3 | 0 | 0.71 | 3.5 | 3.79 |
| 20:02 | 1 | 27.2 | 50 | 56,191 | 0 | 3.04 | 0 | 10.99 | 20.11 | 0 | 0.71 | 4.02 | 5.28 |
| 19:58 | 1 | 27.4 | 49 | 56,882 | 0 | 2.39 | 0 | 10.69 | 20.74 | 0 | 1.43 | 4.04 | 6.03 |
| 19:57 | 1 | 27.4 | 49 | 57,135 | 0 | 0.53 | 0 | 9.62 | 19.02 | 0 | 2.85 | 5.6 | 6.77 |
| 19:53 | 1 | 27.6 | 49 | 57,515 | 0 | 0 | 0 | 10.7 | 15.83 | 0 | 2.14 | 4.06 | 4.51 |
| 19:48 | 1 | 27.8 | 48 | 58,444 | 0 | 0.64 | 0 | 9.2 | 21.81 | 0 | 2.14 | 5.64 | 6.77 |